<?xml version="1.0" encoding="UTF-8" standalone="no" ?>
<gpx xmlns="http://www.topografix.com/GPX/1/1" xmlns:xsi="http://www.w3.org/2001/XMLSchema-instance" xsi:schemaLocation="http://www.topografix.com/GPX/1/1 http://www.topografix.com/GPX/1/1/gpx.xsd" version="1.1" creator="VisuGPX - https://www.visugpx.com">
  <metadata>
    <name>RANDO LIBERTE LA source de la Vanne</name>
    <desc><![CDATA[Complément de la visite à Troyes]]></desc>
  </metadata>
  <trk>
    <name><![CDATA[SityTrail - La source de la Vanne]]></name>
    <trkseg>
      <trkpt lat="48.27514" lon="3.87377">
        <ele>145</ele>
        <time>2026-04-03T14:40:34.398Z</time>
      </trkpt>
      <trkpt lat="48.27518" lon="3.8735">
        <ele>146</ele>
        <time>2026-04-03T14:40:36.036Z</time>
      </trkpt>
      <trkpt lat="48.27531" lon="3.87359">
        <ele>146</ele>
        <time>2026-04-03T14:40:40.113Z</time>
      </trkpt>
      <trkpt lat="48.27535" lon="3.87351">
        <ele>146</ele>
        <time>2026-04-03T14:40:45.021Z</time>
      </trkpt>
      <trkpt lat="48.27545" lon="3.8731">
        <ele>145</ele>
        <time>2026-04-03T14:40:49.113Z</time>
      </trkpt>
      <trkpt lat="48.27548" lon="3.87295">
        <ele>145</ele>
        <time>2026-04-03T14:40:53.501Z</time>
      </trkpt>
      <trkpt lat="48.27554" lon="3.87269">
        <ele>144</ele>
        <time>2026-04-03T14:40:58.041Z</time>
      </trkpt>
      <trkpt lat="48.27564" lon="3.87238">
        <ele>144</ele>
        <time>2026-04-03T14:41:01.996Z</time>
      </trkpt>
      <trkpt lat="48.27569" lon="3.87208">
        <ele>145</ele>
        <time>2026-04-03T14:41:06.437Z</time>
      </trkpt>
      <trkpt lat="48.27561" lon="3.87153">
        <ele>145</ele>
        <time>2026-04-03T14:41:10.738Z</time>
      </trkpt>
      <trkpt lat="48.27558" lon="3.87093">
        <ele>144</ele>
        <time>2026-04-03T14:41:15.113Z</time>
      </trkpt>
      <trkpt lat="48.27558" lon="3.87086">
        <ele>144</ele>
        <time>2026-04-03T14:41:19.218Z</time>
      </trkpt>
      <trkpt lat="48.27555" lon="3.87077">
        <ele>144</ele>
        <time>2026-04-03T14:41:23.681Z</time>
      </trkpt>
      <trkpt lat="48.27553" lon="3.87068">
        <ele>145</ele>
        <time>2026-04-03T14:41:28.113Z</time>
      </trkpt>
      <trkpt lat="48.27551" lon="3.8706">
        <ele>145</ele>
        <time>2026-04-03T14:41:33.113Z</time>
      </trkpt>
      <trkpt lat="48.2755" lon="3.87052">
        <ele>145</ele>
        <time>2026-04-03T14:41:37.504Z</time>
      </trkpt>
      <trkpt lat="48.2755" lon="3.87047">
        <ele>145</ele>
        <time>2026-04-03T14:41:42.001Z</time>
      </trkpt>
      <trkpt lat="48.27549" lon="3.87037">
        <ele>146</ele>
        <time>2026-04-03T14:41:46.480Z</time>
      </trkpt>
      <trkpt lat="48.27548" lon="3.87029">
        <ele>146</ele>
        <time>2026-04-03T14:41:50.857Z</time>
      </trkpt>
      <trkpt lat="48.27548" lon="3.87021">
        <ele>146</ele>
        <time>2026-04-03T14:41:55.114Z</time>
      </trkpt>
      <trkpt lat="48.27547" lon="3.87014">
        <ele>147</ele>
        <time>2026-04-03T14:41:59.739Z</time>
      </trkpt>
      <trkpt lat="48.27546" lon="3.87005">
        <ele>147</ele>
        <time>2026-04-03T14:42:04.261Z</time>
      </trkpt>
      <trkpt lat="48.27546" lon="3.86999">
        <ele>147</ele>
        <time>2026-04-03T14:42:09.115Z</time>
      </trkpt>
      <trkpt lat="48.27545" lon="3.86991">
        <ele>147</ele>
        <time>2026-04-03T14:42:13.113Z</time>
      </trkpt>
      <trkpt lat="48.27543" lon="3.86985">
        <ele>147</ele>
        <time>2026-04-03T14:42:17.384Z</time>
      </trkpt>
      <trkpt lat="48.27542" lon="3.86978">
        <ele>145</ele>
        <time>2026-04-03T14:42:21.473Z</time>
      </trkpt>
      <trkpt lat="48.27541" lon="3.8697">
        <ele>145</ele>
        <time>2026-04-03T14:42:25.600Z</time>
      </trkpt>
      <trkpt lat="48.2754" lon="3.86962">
        <ele>145</ele>
        <time>2026-04-03T14:42:30.003Z</time>
      </trkpt>
      <trkpt lat="48.27539" lon="3.86954">
        <ele>144</ele>
        <time>2026-04-03T14:42:34.559Z</time>
      </trkpt>
      <trkpt lat="48.27538" lon="3.86945">
        <ele>144</ele>
        <time>2026-04-03T14:42:38.799Z</time>
      </trkpt>
      <trkpt lat="48.27537" lon="3.86937">
        <ele>144</ele>
        <time>2026-04-03T14:42:42.861Z</time>
      </trkpt>
      <trkpt lat="48.27536" lon="3.86928">
        <ele>144</ele>
        <time>2026-04-03T14:42:47.114Z</time>
      </trkpt>
      <trkpt lat="48.27534" lon="3.86921">
        <ele>144</ele>
        <time>2026-04-03T14:42:51.581Z</time>
      </trkpt>
      <trkpt lat="48.27534" lon="3.86913">
        <ele>144</ele>
        <time>2026-04-03T14:42:56.113Z</time>
      </trkpt>
      <trkpt lat="48.27533" lon="3.86907">
        <ele>144</ele>
        <time>2026-04-03T14:43:00.523Z</time>
      </trkpt>
      <trkpt lat="48.27532" lon="3.869">
        <ele>145</ele>
        <time>2026-04-03T14:43:05.122Z</time>
      </trkpt>
      <trkpt lat="48.27532" lon="3.86894">
        <ele>145</ele>
        <time>2026-04-03T14:43:09.362Z</time>
      </trkpt>
      <trkpt lat="48.27533" lon="3.8689">
        <ele>145</ele>
        <time>2026-04-03T14:43:13.636Z</time>
      </trkpt>
      <trkpt lat="48.27537" lon="3.86886">
        <ele>145</ele>
        <time>2026-04-03T14:43:18.113Z</time>
      </trkpt>
      <trkpt lat="48.27541" lon="3.86885">
        <ele>145</ele>
        <time>2026-04-03T14:43:22.236Z</time>
      </trkpt>
      <trkpt lat="48.27544" lon="3.86883">
        <ele>145</ele>
        <time>2026-04-03T14:43:27.113Z</time>
      </trkpt>
      <trkpt lat="48.27548" lon="3.86882">
        <ele>145</ele>
        <time>2026-04-03T14:43:31.640Z</time>
      </trkpt>
      <trkpt lat="48.2755" lon="3.86883">
        <ele>145</ele>
        <time>2026-04-03T14:43:36.113Z</time>
      </trkpt>
      <trkpt lat="48.27555" lon="3.86882">
        <ele>145</ele>
        <time>2026-04-03T14:43:40.470Z</time>
      </trkpt>
      <trkpt lat="48.2756" lon="3.86882">
        <ele>145</ele>
        <time>2026-04-03T14:43:44.644Z</time>
      </trkpt>
      <trkpt lat="48.27564" lon="3.86881">
        <ele>145</ele>
        <time>2026-04-03T14:43:48.917Z</time>
      </trkpt>
      <trkpt lat="48.27569" lon="3.8688">
        <ele>145</ele>
        <time>2026-04-03T14:43:52.978Z</time>
      </trkpt>
      <trkpt lat="48.27574" lon="3.86879">
        <ele>145</ele>
        <time>2026-04-03T14:43:57.057Z</time>
      </trkpt>
      <trkpt lat="48.27578" lon="3.86879">
        <ele>145</ele>
        <time>2026-04-03T14:44:01.113Z</time>
      </trkpt>
      <trkpt lat="48.2758" lon="3.8688">
        <ele>145</ele>
        <time>2026-04-03T14:44:05.299Z</time>
      </trkpt>
      <trkpt lat="48.27583" lon="3.8688">
        <ele>145</ele>
        <time>2026-04-03T14:44:09.660Z</time>
      </trkpt>
      <trkpt lat="48.27588" lon="3.8688">
        <ele>145</ele>
        <time>2026-04-03T14:44:14.113Z</time>
      </trkpt>
      <trkpt lat="48.27593" lon="3.86881">
        <ele>145</ele>
        <time>2026-04-03T14:44:18.542Z</time>
      </trkpt>
      <trkpt lat="48.27597" lon="3.86883">
        <ele>145</ele>
        <time>2026-04-03T14:44:22.579Z</time>
      </trkpt>
      <trkpt lat="48.27601" lon="3.86884">
        <ele>146</ele>
        <time>2026-04-03T14:44:27.076Z</time>
      </trkpt>
      <trkpt lat="48.27605" lon="3.86885">
        <ele>146</ele>
        <time>2026-04-03T14:44:31.537Z</time>
      </trkpt>
      <trkpt lat="48.2761" lon="3.86886">
        <ele>146</ele>
        <time>2026-04-03T14:44:35.692Z</time>
      </trkpt>
      <trkpt lat="48.27614" lon="3.86886">
        <ele>146</ele>
        <time>2026-04-03T14:44:40.040Z</time>
      </trkpt>
      <trkpt lat="48.27618" lon="3.86887">
        <ele>146</ele>
        <time>2026-04-03T14:44:44.475Z</time>
      </trkpt>
      <trkpt lat="48.27623" lon="3.86887">
        <ele>146</ele>
        <time>2026-04-03T14:44:48.952Z</time>
      </trkpt>
      <trkpt lat="48.27629" lon="3.86887">
        <ele>146</ele>
        <time>2026-04-03T14:44:52.980Z</time>
      </trkpt>
      <trkpt lat="48.27634" lon="3.86888">
        <ele>146</ele>
        <time>2026-04-03T14:44:57.112Z</time>
      </trkpt>
      <trkpt lat="48.27638" lon="3.86888">
        <ele>146</ele>
        <time>2026-04-03T14:45:01.112Z</time>
      </trkpt>
      <trkpt lat="48.27644" lon="3.86888">
        <ele>146</ele>
        <time>2026-04-03T14:45:05.352Z</time>
      </trkpt>
      <trkpt lat="48.27649" lon="3.86888">
        <ele>146</ele>
        <time>2026-04-03T14:45:09.917Z</time>
      </trkpt>
      <trkpt lat="48.27654" lon="3.86889">
        <ele>146</ele>
        <time>2026-04-03T14:45:14.560Z</time>
      </trkpt>
      <trkpt lat="48.27659" lon="3.86889">
        <ele>146</ele>
        <time>2026-04-03T14:45:18.817Z</time>
      </trkpt>
      <trkpt lat="48.27665" lon="3.8689">
        <ele>146</ele>
        <time>2026-04-03T14:45:22.944Z</time>
      </trkpt>
      <trkpt lat="48.2767" lon="3.86892">
        <ele>146</ele>
        <time>2026-04-03T14:45:27.112Z</time>
      </trkpt>
      <trkpt lat="48.27674" lon="3.86893">
        <ele>146</ele>
        <time>2026-04-03T14:45:31.395Z</time>
      </trkpt>
      <trkpt lat="48.27678" lon="3.86895">
        <ele>146</ele>
        <time>2026-04-03T14:45:35.594Z</time>
      </trkpt>
      <trkpt lat="48.27682" lon="3.86898">
        <ele>143</ele>
        <time>2026-04-03T14:45:39.801Z</time>
      </trkpt>
      <trkpt lat="48.27684" lon="3.869">
        <ele>143</ele>
        <time>2026-04-03T14:45:43.875Z</time>
      </trkpt>
      <trkpt lat="48.27689" lon="3.86903">
        <ele>143</ele>
        <time>2026-04-03T14:45:48.539Z</time>
      </trkpt>
      <trkpt lat="48.27694" lon="3.86904">
        <ele>143</ele>
        <time>2026-04-03T14:45:52.677Z</time>
      </trkpt>
      <trkpt lat="48.27698" lon="3.86903">
        <ele>143</ele>
        <time>2026-04-03T14:45:57.112Z</time>
      </trkpt>
      <trkpt lat="48.27701" lon="3.86903">
        <ele>143</ele>
        <time>2026-04-03T14:46:01.500Z</time>
      </trkpt>
      <trkpt lat="48.27705" lon="3.86904">
        <ele>143</ele>
        <time>2026-04-03T14:46:05.699Z</time>
      </trkpt>
      <trkpt lat="48.2771" lon="3.86906">
        <ele>142</ele>
        <time>2026-04-03T14:46:09.779Z</time>
      </trkpt>
      <trkpt lat="48.27714" lon="3.86907">
        <ele>142</ele>
        <time>2026-04-03T14:46:13.899Z</time>
      </trkpt>
      <trkpt lat="48.27719" lon="3.86908">
        <ele>142</ele>
        <time>2026-04-03T14:46:18.116Z</time>
      </trkpt>
      <trkpt lat="48.27722" lon="3.86907">
        <ele>142</ele>
        <time>2026-04-03T14:46:22.112Z</time>
      </trkpt>
      <trkpt lat="48.27728" lon="3.86909">
        <ele>142</ele>
        <time>2026-04-03T14:46:26.357Z</time>
      </trkpt>
      <trkpt lat="48.27733" lon="3.8691">
        <ele>142</ele>
        <time>2026-04-03T14:46:30.795Z</time>
      </trkpt>
      <trkpt lat="48.27738" lon="3.86911">
        <ele>143</ele>
        <time>2026-04-03T14:46:35.112Z</time>
      </trkpt>
      <trkpt lat="48.27742" lon="3.86911">
        <ele>143</ele>
        <time>2026-04-03T14:46:39.755Z</time>
      </trkpt>
      <trkpt lat="48.27746" lon="3.86911">
        <ele>143</ele>
        <time>2026-04-03T14:46:43.816Z</time>
      </trkpt>
      <trkpt lat="48.2775" lon="3.8691">
        <ele>143</ele>
        <time>2026-04-03T14:46:47.937Z</time>
      </trkpt>
      <trkpt lat="48.27754" lon="3.8691">
        <ele>143</ele>
        <time>2026-04-03T14:46:52.033Z</time>
      </trkpt>
      <trkpt lat="48.27759" lon="3.8691">
        <ele>143</ele>
        <time>2026-04-03T14:46:56.573Z</time>
      </trkpt>
      <trkpt lat="48.27765" lon="3.86911">
        <ele>144</ele>
        <time>2026-04-03T14:47:01.112Z</time>
      </trkpt>
      <trkpt lat="48.27769" lon="3.86911">
        <ele>144</ele>
        <time>2026-04-03T14:47:05.515Z</time>
      </trkpt>
      <trkpt lat="48.27774" lon="3.86912">
        <ele>144</ele>
        <time>2026-04-03T14:47:09.800Z</time>
      </trkpt>
      <trkpt lat="48.27778" lon="3.86911">
        <ele>144</ele>
        <time>2026-04-03T14:47:14.075Z</time>
      </trkpt>
      <trkpt lat="48.27783" lon="3.86911">
        <ele>144</ele>
        <time>2026-04-03T14:47:18.112Z</time>
      </trkpt>
      <trkpt lat="48.27788" lon="3.86911">
        <ele>144</ele>
        <time>2026-04-03T14:47:23.112Z</time>
      </trkpt>
      <trkpt lat="48.27793" lon="3.86911">
        <ele>144</ele>
        <time>2026-04-03T14:47:27.737Z</time>
      </trkpt>
      <trkpt lat="48.27797" lon="3.86911">
        <ele>144</ele>
        <time>2026-04-03T14:47:32.078Z</time>
      </trkpt>
      <trkpt lat="48.27801" lon="3.8691">
        <ele>144</ele>
        <time>2026-04-03T14:47:36.117Z</time>
      </trkpt>
      <trkpt lat="48.27804" lon="3.86909">
        <ele>144</ele>
        <time>2026-04-03T14:47:40.296Z</time>
      </trkpt>
      <trkpt lat="48.27808" lon="3.86908">
        <ele>144</ele>
        <time>2026-04-03T14:47:44.656Z</time>
      </trkpt>
      <trkpt lat="48.27812" lon="3.86906">
        <ele>144</ele>
        <time>2026-04-03T14:47:49.112Z</time>
      </trkpt>
      <trkpt lat="48.27815" lon="3.86905">
        <ele>144</ele>
        <time>2026-04-03T14:47:53.778Z</time>
      </trkpt>
      <trkpt lat="48.27816" lon="3.86902">
        <ele>144</ele>
        <time>2026-04-03T14:47:57.992Z</time>
      </trkpt>
      <trkpt lat="48.2782" lon="3.86905">
        <ele>145</ele>
        <time>2026-04-03T14:48:02.353Z</time>
      </trkpt>
      <trkpt lat="48.27822" lon="3.86911">
        <ele>145</ele>
        <time>2026-04-03T14:48:06.773Z</time>
      </trkpt>
      <trkpt lat="48.27822" lon="3.86916">
        <ele>145</ele>
        <time>2026-04-03T14:48:10.775Z</time>
      </trkpt>
      <trkpt lat="48.27822" lon="3.86921">
        <ele>145</ele>
        <time>2026-04-03T14:48:15.058Z</time>
      </trkpt>
      <trkpt lat="48.27822" lon="3.86931">
        <ele>145</ele>
        <time>2026-04-03T14:48:19.113Z</time>
      </trkpt>
      <trkpt lat="48.27822" lon="3.86937">
        <ele>145</ele>
        <time>2026-04-03T14:48:23.234Z</time>
      </trkpt>
      <trkpt lat="48.27823" lon="3.86944">
        <ele>145</ele>
        <time>2026-04-03T14:48:27.832Z</time>
      </trkpt>
      <trkpt lat="48.27825" lon="3.8695">
        <ele>145</ele>
        <time>2026-04-03T14:48:33.112Z</time>
      </trkpt>
      <trkpt lat="48.27826" lon="3.86956">
        <ele>145</ele>
        <time>2026-04-03T14:48:37.875Z</time>
      </trkpt>
      <trkpt lat="48.27829" lon="3.86962">
        <ele>145</ele>
        <time>2026-04-03T14:48:42.112Z</time>
      </trkpt>
      <trkpt lat="48.27832" lon="3.86968">
        <ele>145</ele>
        <time>2026-04-03T14:48:46.712Z</time>
      </trkpt>
      <trkpt lat="48.27833" lon="3.86973">
        <ele>145</ele>
        <time>2026-04-03T14:48:50.876Z</time>
      </trkpt>
      <trkpt lat="48.27832" lon="3.86979">
        <ele>145</ele>
        <time>2026-04-03T14:48:54.878Z</time>
      </trkpt>
      <trkpt lat="48.27833" lon="3.86986">
        <ele>145</ele>
        <time>2026-04-03T14:48:59.119Z</time>
      </trkpt>
      <trkpt lat="48.27836" lon="3.86994">
        <ele>145</ele>
        <time>2026-04-03T14:49:03.456Z</time>
      </trkpt>
      <trkpt lat="48.27839" lon="3.87002">
        <ele>145</ele>
        <time>2026-04-03T14:49:07.798Z</time>
      </trkpt>
      <trkpt lat="48.27838" lon="3.87009">
        <ele>145</ele>
        <time>2026-04-03T14:49:12.098Z</time>
      </trkpt>
      <trkpt lat="48.27838" lon="3.87013">
        <ele>145</ele>
        <time>2026-04-03T14:49:16.638Z</time>
      </trkpt>
      <trkpt lat="48.2784" lon="3.87021">
        <ele>145</ele>
        <time>2026-04-03T14:49:20.674Z</time>
      </trkpt>
      <trkpt lat="48.27842" lon="3.87029">
        <ele>145</ele>
        <time>2026-04-03T14:49:25.001Z</time>
      </trkpt>
      <trkpt lat="48.27843" lon="3.87036">
        <ele>145</ele>
        <time>2026-04-03T14:49:29.360Z</time>
      </trkpt>
      <trkpt lat="48.27845" lon="3.87043">
        <ele>146</ele>
        <time>2026-04-03T14:49:33.737Z</time>
      </trkpt>
      <trkpt lat="48.27845" lon="3.8705">
        <ele>146</ele>
        <time>2026-04-03T14:49:38.112Z</time>
      </trkpt>
      <trkpt lat="48.27847" lon="3.87057">
        <ele>146</ele>
        <time>2026-04-03T14:49:42.373Z</time>
      </trkpt>
      <trkpt lat="48.27849" lon="3.87065">
        <ele>147</ele>
        <time>2026-04-03T14:49:46.818Z</time>
      </trkpt>
      <trkpt lat="48.27851" lon="3.87071">
        <ele>147</ele>
        <time>2026-04-03T14:49:51.298Z</time>
      </trkpt>
      <trkpt lat="48.27852" lon="3.8708">
        <ele>147</ele>
        <time>2026-04-03T14:49:55.675Z</time>
      </trkpt>
      <trkpt lat="48.27853" lon="3.87087">
        <ele>147</ele>
        <time>2026-04-03T14:50:00.112Z</time>
      </trkpt>
      <trkpt lat="48.27853" lon="3.87094">
        <ele>147</ele>
        <time>2026-04-03T14:50:04.813Z</time>
      </trkpt>
      <trkpt lat="48.27854" lon="3.87101">
        <ele>146</ele>
        <time>2026-04-03T14:50:09.275Z</time>
      </trkpt>
      <trkpt lat="48.27856" lon="3.87109">
        <ele>146</ele>
        <time>2026-04-03T14:50:13.337Z</time>
      </trkpt>
      <trkpt lat="48.27857" lon="3.87115">
        <ele>146</ele>
        <time>2026-04-03T14:50:17.953Z</time>
      </trkpt>
      <trkpt lat="48.27858" lon="3.87121">
        <ele>146</ele>
        <time>2026-04-03T14:50:22.469Z</time>
      </trkpt>
      <trkpt lat="48.27859" lon="3.87128">
        <ele>145</ele>
        <time>2026-04-03T14:50:26.555Z</time>
      </trkpt>
      <trkpt lat="48.27861" lon="3.87135">
        <ele>145</ele>
        <time>2026-04-03T14:50:31.076Z</time>
      </trkpt>
      <trkpt lat="48.27863" lon="3.87142">
        <ele>145</ele>
        <time>2026-04-03T14:50:35.599Z</time>
      </trkpt>
      <trkpt lat="48.27865" lon="3.87148">
        <ele>145</ele>
        <time>2026-04-03T14:50:40.052Z</time>
      </trkpt>
      <trkpt lat="48.27868" lon="3.87154">
        <ele>144</ele>
        <time>2026-04-03T14:50:44.097Z</time>
      </trkpt>
      <trkpt lat="48.27872" lon="3.8716">
        <ele>144</ele>
        <time>2026-04-03T14:50:48.576Z</time>
      </trkpt>
      <trkpt lat="48.27874" lon="3.87167">
        <ele>144</ele>
        <time>2026-04-03T14:50:52.860Z</time>
      </trkpt>
      <trkpt lat="48.27877" lon="3.87173">
        <ele>144</ele>
        <time>2026-04-03T14:50:57.280Z</time>
      </trkpt>
      <trkpt lat="48.2788" lon="3.8718">
        <ele>144</ele>
        <time>2026-04-03T14:51:01.615Z</time>
      </trkpt>
      <trkpt lat="48.27881" lon="3.87187">
        <ele>144</ele>
        <time>2026-04-03T14:51:05.675Z</time>
      </trkpt>
      <trkpt lat="48.2788" lon="3.87194">
        <ele>144</ele>
        <time>2026-04-03T14:51:10.035Z</time>
      </trkpt>
      <trkpt lat="48.27878" lon="3.87201">
        <ele>144</ele>
        <time>2026-04-03T14:51:14.115Z</time>
      </trkpt>
      <trkpt lat="48.27876" lon="3.87208">
        <ele>144</ele>
        <time>2026-04-03T14:51:18.321Z</time>
      </trkpt>
      <trkpt lat="48.27875" lon="3.87214">
        <ele>145</ele>
        <time>2026-04-03T14:51:22.579Z</time>
      </trkpt>
      <trkpt lat="48.27875" lon="3.87223">
        <ele>145</ele>
        <time>2026-04-03T14:51:27.112Z</time>
      </trkpt>
      <trkpt lat="48.27873" lon="3.8723">
        <ele>145</ele>
        <time>2026-04-03T14:51:31.496Z</time>
      </trkpt>
      <trkpt lat="48.27874" lon="3.87239">
        <ele>146</ele>
        <time>2026-04-03T14:51:35.632Z</time>
      </trkpt>
      <trkpt lat="48.27872" lon="3.87251">
        <ele>146</ele>
        <time>2026-04-03T14:51:40.111Z</time>
      </trkpt>
      <trkpt lat="48.27872" lon="3.87257">
        <ele>146</ele>
        <time>2026-04-03T14:51:44.676Z</time>
      </trkpt>
      <trkpt lat="48.27871" lon="3.87266">
        <ele>147</ele>
        <time>2026-04-03T14:51:49.111Z</time>
      </trkpt>
      <trkpt lat="48.27869" lon="3.87273">
        <ele>147</ele>
        <time>2026-04-03T14:51:53.371Z</time>
      </trkpt>
      <trkpt lat="48.27867" lon="3.87279">
        <ele>147</ele>
        <time>2026-04-03T14:54:45.930Z</time>
      </trkpt>
      <trkpt lat="48.27864" lon="3.87283">
        <ele>147</ele>
        <time>2026-04-03T14:54:50.111Z</time>
      </trkpt>
      <trkpt lat="48.2786" lon="3.87284">
        <ele>147</ele>
        <time>2026-04-03T14:54:54.111Z</time>
      </trkpt>
      <trkpt lat="48.27855" lon="3.87283">
        <ele>147</ele>
        <time>2026-04-03T14:54:59.111Z</time>
      </trkpt>
      <trkpt lat="48.27851" lon="3.87283">
        <ele>147</ele>
        <time>2026-04-03T14:55:04.111Z</time>
      </trkpt>
      <trkpt lat="48.27848" lon="3.87284">
        <ele>147</ele>
        <time>2026-04-03T14:55:50.282Z</time>
      </trkpt>
      <trkpt lat="48.27844" lon="3.87288">
        <ele>145</ele>
        <time>2026-04-03T14:55:54.412Z</time>
      </trkpt>
      <trkpt lat="48.27841" lon="3.87293">
        <ele>146</ele>
        <time>2026-04-03T14:55:58.600Z</time>
      </trkpt>
      <trkpt lat="48.27837" lon="3.87297">
        <ele>146</ele>
        <time>2026-04-03T14:56:02.915Z</time>
      </trkpt>
      <trkpt lat="48.27832" lon="3.8731">
        <ele>146</ele>
        <time>2026-04-03T14:56:07.053Z</time>
      </trkpt>
      <trkpt lat="48.27837" lon="3.87319">
        <ele>146</ele>
        <time>2026-04-03T14:56:11.729Z</time>
      </trkpt>
      <trkpt lat="48.27835" lon="3.8732">
        <ele>147</ele>
        <time>2026-04-03T14:56:15.796Z</time>
      </trkpt>
      <trkpt lat="48.27834" lon="3.8732">
        <ele>147</ele>
        <time>2026-04-03T14:56:20.111Z</time>
      </trkpt>
      <trkpt lat="48.27834" lon="3.8732">
        <ele>147</ele>
        <time>2026-04-03T14:56:24.111Z</time>
      </trkpt>
      <trkpt lat="48.27837" lon="3.87316">
        <ele>146</ele>
        <time>2026-04-03T14:56:29.111Z</time>
      </trkpt>
      <trkpt lat="48.27838" lon="3.87325">
        <ele>147</ele>
        <time>2026-04-03T14:56:33.723Z</time>
      </trkpt>
      <trkpt lat="48.2784" lon="3.87335">
        <ele>147</ele>
        <time>2026-04-03T14:56:39.058Z</time>
      </trkpt>
      <trkpt lat="48.27844" lon="3.87337">
        <ele>147</ele>
        <time>2026-04-03T14:56:43.453Z</time>
      </trkpt>
      <trkpt lat="48.27845" lon="3.87342">
        <ele>147</ele>
        <time>2026-04-03T15:00:29.462Z</time>
      </trkpt>
      <trkpt lat="48.27846" lon="3.87343">
        <ele>147</ele>
        <time>2026-04-03T15:00:33.701Z</time>
      </trkpt>
      <trkpt lat="48.27848" lon="3.87342">
        <ele>148</ele>
        <time>2026-04-03T15:00:38.378Z</time>
      </trkpt>
      <trkpt lat="48.27852" lon="3.87335">
        <ele>148</ele>
        <time>2026-04-03T15:00:42.933Z</time>
      </trkpt>
      <trkpt lat="48.27857" lon="3.8733">
        <ele>148</ele>
        <time>2026-04-03T15:00:47.533Z</time>
      </trkpt>
      <trkpt lat="48.27862" lon="3.87327">
        <ele>148</ele>
        <time>2026-04-03T15:00:51.638Z</time>
      </trkpt>
      <trkpt lat="48.2786" lon="3.87334">
        <ele>148</ele>
        <time>2026-04-03T15:00:56.110Z</time>
      </trkpt>
      <trkpt lat="48.27856" lon="3.87343">
        <ele>148</ele>
        <time>2026-04-03T15:01:00.657Z</time>
      </trkpt>
      <trkpt lat="48.27852" lon="3.87348">
        <ele>150</ele>
        <time>2026-04-03T15:01:05.032Z</time>
      </trkpt>
      <trkpt lat="48.27849" lon="3.87358">
        <ele>150</ele>
        <time>2026-04-03T15:01:09.334Z</time>
      </trkpt>
      <trkpt lat="48.27848" lon="3.87359">
        <ele>150</ele>
        <time>2026-04-03T15:01:13.442Z</time>
      </trkpt>
      <trkpt lat="48.27846" lon="3.87364">
        <ele>147</ele>
        <time>2026-04-03T15:01:17.757Z</time>
      </trkpt>
      <trkpt lat="48.27843" lon="3.87368">
        <ele>147</ele>
        <time>2026-04-03T15:01:21.776Z</time>
      </trkpt>
      <trkpt lat="48.2784" lon="3.87374">
        <ele>147</ele>
        <time>2026-04-03T15:01:26.057Z</time>
      </trkpt>
      <trkpt lat="48.27838" lon="3.87379">
        <ele>149</ele>
        <time>2026-04-03T15:01:30.538Z</time>
      </trkpt>
      <trkpt lat="48.27836" lon="3.87383">
        <ele>149</ele>
        <time>2026-04-03T15:01:34.993Z</time>
      </trkpt>
      <trkpt lat="48.27834" lon="3.8739">
        <ele>149</ele>
        <time>2026-04-03T15:01:39.276Z</time>
      </trkpt>
      <trkpt lat="48.27832" lon="3.87398">
        <ele>149</ele>
        <time>2026-04-03T15:01:43.817Z</time>
      </trkpt>
      <trkpt lat="48.2783" lon="3.87405">
        <ele>150</ele>
        <time>2026-04-03T15:01:48.110Z</time>
      </trkpt>
      <trkpt lat="48.27828" lon="3.8741">
        <ele>150</ele>
        <time>2026-04-03T15:01:52.461Z</time>
      </trkpt>
      <trkpt lat="48.27829" lon="3.87419">
        <ele>150</ele>
        <time>2026-04-03T15:01:56.997Z</time>
      </trkpt>
      <trkpt lat="48.27827" lon="3.87424">
        <ele>150</ele>
        <time>2026-04-03T15:02:01.093Z</time>
      </trkpt>
      <trkpt lat="48.27825" lon="3.87431">
        <ele>152</ele>
        <time>2026-04-03T15:02:05.574Z</time>
      </trkpt>
      <trkpt lat="48.27823" lon="3.87439">
        <ele>152</ele>
        <time>2026-04-03T15:02:09.736Z</time>
      </trkpt>
      <trkpt lat="48.27821" lon="3.87444">
        <ele>152</ele>
        <time>2026-04-03T15:02:13.977Z</time>
      </trkpt>
      <trkpt lat="48.27818" lon="3.8745">
        <ele>150</ele>
        <time>2026-04-03T15:02:18.110Z</time>
      </trkpt>
      <trkpt lat="48.27816" lon="3.87456">
        <ele>150</ele>
        <time>2026-04-03T15:02:22.537Z</time>
      </trkpt>
      <trkpt lat="48.27815" lon="3.87462">
        <ele>151</ele>
        <time>2026-04-03T15:02:26.777Z</time>
      </trkpt>
      <trkpt lat="48.27814" lon="3.87468">
        <ele>151</ele>
        <time>2026-04-03T15:02:30.956Z</time>
      </trkpt>
      <trkpt lat="48.27812" lon="3.87475">
        <ele>151</ele>
        <time>2026-04-03T15:02:35.556Z</time>
      </trkpt>
      <trkpt lat="48.27811" lon="3.87481">
        <ele>151</ele>
        <time>2026-04-03T15:02:39.777Z</time>
      </trkpt>
      <trkpt lat="48.2781" lon="3.87488">
        <ele>152</ele>
        <time>2026-04-03T15:02:44.038Z</time>
      </trkpt>
      <trkpt lat="48.27808" lon="3.87494">
        <ele>152</ele>
        <time>2026-04-03T15:02:48.110Z</time>
      </trkpt>
      <trkpt lat="48.27806" lon="3.875">
        <ele>152</ele>
        <time>2026-04-03T15:02:52.314Z</time>
      </trkpt>
      <trkpt lat="48.27802" lon="3.875">
        <ele>152</ele>
        <time>2026-04-03T15:02:56.751Z</time>
      </trkpt>
      <trkpt lat="48.27798" lon="3.87501">
        <ele>152</ele>
        <time>2026-04-03T15:03:00.813Z</time>
      </trkpt>
      <trkpt lat="48.27794" lon="3.87502">
        <ele>152</ele>
        <time>2026-04-03T15:03:04.934Z</time>
      </trkpt>
      <trkpt lat="48.2779" lon="3.87503">
        <ele>149</ele>
        <time>2026-04-03T15:03:09.097Z</time>
      </trkpt>
      <trkpt lat="48.27786" lon="3.87499">
        <ele>149</ele>
        <time>2026-04-03T15:03:13.116Z</time>
      </trkpt>
      <trkpt lat="48.27782" lon="3.87499">
        <ele>149</ele>
        <time>2026-04-03T15:03:17.758Z</time>
      </trkpt>
      <trkpt lat="48.27777" lon="3.875">
        <ele>149</ele>
        <time>2026-04-03T15:03:22.110Z</time>
      </trkpt>
      <trkpt lat="48.27774" lon="3.87498">
        <ele>149</ele>
        <time>2026-04-03T15:03:26.418Z</time>
      </trkpt>
      <trkpt lat="48.27769" lon="3.87499">
        <ele>149</ele>
        <time>2026-04-03T15:03:30.617Z</time>
      </trkpt>
      <trkpt lat="48.27763" lon="3.87503">
        <ele>147</ele>
        <time>2026-04-03T15:03:34.712Z</time>
      </trkpt>
      <trkpt lat="48.27759" lon="3.87503">
        <ele>147</ele>
        <time>2026-04-03T15:03:38.919Z</time>
      </trkpt>
      <trkpt lat="48.27754" lon="3.87506">
        <ele>147</ele>
        <time>2026-04-03T15:03:43.090Z</time>
      </trkpt>
      <trkpt lat="48.27749" lon="3.87505">
        <ele>147</ele>
        <time>2026-04-03T15:03:47.118Z</time>
      </trkpt>
      <trkpt lat="48.27745" lon="3.87503">
        <ele>147</ele>
        <time>2026-04-03T15:03:51.606Z</time>
      </trkpt>
      <trkpt lat="48.2774" lon="3.87497">
        <ele>147</ele>
        <time>2026-04-03T15:03:55.906Z</time>
      </trkpt>
      <trkpt lat="48.27736" lon="3.87493">
        <ele>147</ele>
        <time>2026-04-03T15:03:59.984Z</time>
      </trkpt>
      <trkpt lat="48.27731" lon="3.87492">
        <ele>146</ele>
        <time>2026-04-03T15:04:04.110Z</time>
      </trkpt>
      <trkpt lat="48.27727" lon="3.87492">
        <ele>146</ele>
        <time>2026-04-03T15:04:08.245Z</time>
      </trkpt>
      <trkpt lat="48.27723" lon="3.87493">
        <ele>146</ele>
        <time>2026-04-03T15:04:12.485Z</time>
      </trkpt>
      <trkpt lat="48.27719" lon="3.87494">
        <ele>146</ele>
        <time>2026-04-03T15:04:16.813Z</time>
      </trkpt>
      <trkpt lat="48.27715" lon="3.87494">
        <ele>146</ele>
        <time>2026-04-03T15:04:21.026Z</time>
      </trkpt>
      <trkpt lat="48.27711" lon="3.87494">
        <ele>146</ele>
        <time>2026-04-03T15:04:25.234Z</time>
      </trkpt>
      <trkpt lat="48.27706" lon="3.87494">
        <ele>146</ele>
        <time>2026-04-03T15:04:29.525Z</time>
      </trkpt>
      <trkpt lat="48.27702" lon="3.87491">
        <ele>146</ele>
        <time>2026-04-03T15:04:34.133Z</time>
      </trkpt>
      <trkpt lat="48.27698" lon="3.87492">
        <ele>146</ele>
        <time>2026-04-03T15:04:38.226Z</time>
      </trkpt>
      <trkpt lat="48.27693" lon="3.87494">
        <ele>146</ele>
        <time>2026-04-03T15:04:42.426Z</time>
      </trkpt>
      <trkpt lat="48.27688" lon="3.87492">
        <ele>146</ele>
        <time>2026-04-03T15:04:47.051Z</time>
      </trkpt>
      <trkpt lat="48.27684" lon="3.8749">
        <ele>146</ele>
        <time>2026-04-03T15:04:51.110Z</time>
      </trkpt>
      <trkpt lat="48.2768" lon="3.87488">
        <ele>145</ele>
        <time>2026-04-03T15:04:55.458Z</time>
      </trkpt>
      <trkpt lat="48.27675" lon="3.87486">
        <ele>145</ele>
        <time>2026-04-03T15:04:59.645Z</time>
      </trkpt>
      <trkpt lat="48.27671" lon="3.87486">
        <ele>144</ele>
        <time>2026-04-03T15:05:03.988Z</time>
      </trkpt>
      <trkpt lat="48.27667" lon="3.87485">
        <ele>144</ele>
        <time>2026-04-03T15:05:08.424Z</time>
      </trkpt>
      <trkpt lat="48.27661" lon="3.87483">
        <ele>144</ele>
        <time>2026-04-03T15:05:12.827Z</time>
      </trkpt>
      <trkpt lat="48.27657" lon="3.87483">
        <ele>144</ele>
        <time>2026-04-03T15:05:17.110Z</time>
      </trkpt>
      <trkpt lat="48.27653" lon="3.87482">
        <ele>143</ele>
        <time>2026-04-03T15:05:21.769Z</time>
      </trkpt>
      <trkpt lat="48.27647" lon="3.8748">
        <ele>143</ele>
        <time>2026-04-03T15:05:26.110Z</time>
      </trkpt>
      <trkpt lat="48.27642" lon="3.87479">
        <ele>143</ele>
        <time>2026-04-03T15:05:30.626Z</time>
      </trkpt>
      <trkpt lat="48.27637" lon="3.87478">
        <ele>143</ele>
        <time>2026-04-03T15:05:34.789Z</time>
      </trkpt>
      <trkpt lat="48.27632" lon="3.87477">
        <ele>143</ele>
        <time>2026-04-03T15:05:38.825Z</time>
      </trkpt>
      <trkpt lat="48.27628" lon="3.87476">
        <ele>143</ele>
        <time>2026-04-03T15:05:42.912Z</time>
      </trkpt>
      <trkpt lat="48.27623" lon="3.87475">
        <ele>145</ele>
        <time>2026-04-03T15:05:46.965Z</time>
      </trkpt>
      <trkpt lat="48.27618" lon="3.87474">
        <ele>145</ele>
        <time>2026-04-03T15:05:51.112Z</time>
      </trkpt>
      <trkpt lat="48.27614" lon="3.87473">
        <ele>145</ele>
        <time>2026-04-03T15:05:55.532Z</time>
      </trkpt>
      <trkpt lat="48.27609" lon="3.87471">
        <ele>145</ele>
        <time>2026-04-03T15:05:59.747Z</time>
      </trkpt>
      <trkpt lat="48.27605" lon="3.8747">
        <ele>145</ele>
        <time>2026-04-03T15:06:04.005Z</time>
      </trkpt>
      <trkpt lat="48.27601" lon="3.87469">
        <ele>145</ele>
        <time>2026-04-03T15:06:08.109Z</time>
      </trkpt>
      <trkpt lat="48.27597" lon="3.87469">
        <ele>146</ele>
        <time>2026-04-03T15:06:12.392Z</time>
      </trkpt>
      <trkpt lat="48.27593" lon="3.87468">
        <ele>146</ele>
        <time>2026-04-03T15:06:16.635Z</time>
      </trkpt>
      <trkpt lat="48.27588" lon="3.87467">
        <ele>146</ele>
        <time>2026-04-03T15:06:20.968Z</time>
      </trkpt>
      <trkpt lat="48.27583" lon="3.87466">
        <ele>146</ele>
        <time>2026-04-03T15:06:25.109Z</time>
      </trkpt>
      <trkpt lat="48.27578" lon="3.87466">
        <ele>146</ele>
        <time>2026-04-03T15:06:29.406Z</time>
      </trkpt>
      <trkpt lat="48.27573" lon="3.87465">
        <ele>146</ele>
        <time>2026-04-03T15:06:33.735Z</time>
      </trkpt>
      <trkpt lat="48.27569" lon="3.87463">
        <ele>146</ele>
        <time>2026-04-03T15:06:37.971Z</time>
      </trkpt>
      <trkpt lat="48.27564" lon="3.87462">
        <ele>146</ele>
        <time>2026-04-03T15:06:42.213Z</time>
      </trkpt>
      <trkpt lat="48.2756" lon="3.87461">
        <ele>146</ele>
        <time>2026-04-03T15:06:46.872Z</time>
      </trkpt>
      <trkpt lat="48.27555" lon="3.8746">
        <ele>146</ele>
        <time>2026-04-03T15:06:50.936Z</time>
      </trkpt>
      <trkpt lat="48.27551" lon="3.8746">
        <ele>146</ele>
        <time>2026-04-03T15:06:55.208Z</time>
      </trkpt>
      <trkpt lat="48.27546" lon="3.87459">
        <ele>146</ele>
        <time>2026-04-03T15:06:59.491Z</time>
      </trkpt>
      <trkpt lat="48.27541" lon="3.87459">
        <ele>145</ele>
        <time>2026-04-03T15:07:03.748Z</time>
      </trkpt>
      <trkpt lat="48.27536" lon="3.87459">
        <ele>145</ele>
        <time>2026-04-03T15:07:07.911Z</time>
      </trkpt>
      <trkpt lat="48.27531" lon="3.87458">
        <ele>145</ele>
        <time>2026-04-03T15:07:11.974Z</time>
      </trkpt>
      <trkpt lat="48.27526" lon="3.87457">
        <ele>146</ele>
        <time>2026-04-03T15:07:17.109Z</time>
      </trkpt>
      <trkpt lat="48.27523" lon="3.87453">
        <ele>146</ele>
        <time>2026-04-03T15:07:21.856Z</time>
      </trkpt>
      <trkpt lat="48.27524" lon="3.87445">
        <ele>146</ele>
        <time>2026-04-03T15:07:25.996Z</time>
      </trkpt>
      <trkpt lat="48.27524" lon="3.87438">
        <ele>146</ele>
        <time>2026-04-03T15:07:30.315Z</time>
      </trkpt>
      <trkpt lat="48.27519" lon="3.87434">
        <ele>146</ele>
        <time>2026-04-03T15:07:34.533Z</time>
      </trkpt>
      <trkpt lat="48.27517" lon="3.87429">
        <ele>145</ele>
        <time>2026-04-03T15:07:38.834Z</time>
      </trkpt>
      <trkpt lat="48.27517" lon="3.87422">
        <ele>145</ele>
      </trkpt>
      <trkpt lat="48.27513" lon="3.87418">
        <ele>145</ele>
      </trkpt>
      <trkpt lat="48.27512" lon="3.87411">
        <ele>145</ele>
      </trkpt>
      <trkpt lat="48.27514" lon="3.87407">
        <ele>145</ele>
      </trkpt>
      <trkpt lat="48.27515" lon="3.87404">
        <ele>145</ele>
      </trkpt>
      <trkpt lat="48.27515" lon="3.87395">
        <ele>145</ele>
      </trkpt>
      <trkpt lat="48.27515" lon="3.87389">
        <ele>145</ele>
      </trkpt>
      <trkpt lat="48.27517" lon="3.87384">
        <ele>145</ele>
      </trkpt>
      <trkpt lat="48.27517" lon="3.8738">
        <ele>145</ele>
      </trkpt>
    </trkseg>
  </trk>
</gpx>